M I D A S
Marine Information and Data Acquisition System
Tripno 1018 of the Zeeleeuw from 2005-02-28 08:10:00 to 2005-02-28 16:05:00
Back to CruiseResearch ActivitiesStationsMapUnderway DataData graphs

EquipmentUnitsComment
TimeDGPSUTC
LatitudeDGPSDM.mWGS84
LongitudeDGPSDM.mWGS84
HeadingGyrodeg 
SOGDGPSknotsSpeed over ground
COGDGPSdegCourse over ground
DepthEcho soundermeters200 kHz
Missing or incorrect values are displayed as -999
Navigation data collected by the RV Zeeleeuw from 2005-02-28 08:10:00 to 2005-02-28 16:05:00
Time Latitude Longitude Heading SOG COG Depth
2005-02-28 08:11:03 51°13.595 2°56.103 120.8 0.1 184 5.8
2005-02-28 08:12:03 51°13.604 2°56.075 120.3 2.8 303 -999
2005-02-28 08:13:03 51°13.633 2°55.975 116.6 4.9 293 -999
2005-02-28 08:14:03 51°13.685 2°55.854 135.2 5.8 312 -999
2005-02-28 08:15:03 51°13.741 2°55.739 119.4 5 301 -999
2005-02-28 08:16:03 51°13.76 2°55.685 80.8 0.7 21 8.5
2005-02-28 08:17:03 51°13.759 2°55.669 42.1 1.2 245 -999
2005-02-28 08:18:03 51°13.809 2°55.651 343.7 5 341 8.9
2005-02-28 08:19:03 51°13.93 2°55.564 338.9 9.5 335 8.1
2005-02-28 08:20:02 51°14.078 2°55.456 339.8 10.1 336 7.8
2005-02-28 08:21:02 51°14.228 2°55.311 327 10.7 322 7.8
2005-02-28 08:22:02 51°14.35 2°55.09 313.5 11.4 309 7.9
2005-02-28 08:23:03 51°14.438 2°54.803 289.5 12.4 283 8
2005-02-28 08:24:03 51°14.454 2°54.462 278.1 13.1 271 8.2
2005-02-28 08:25:03 51°14.387 2°54.129 245.7 13.5 242 5.7
2005-02-28 08:26:02 51°14.268 2°53.819 241.9 13.9 239 7.6
2005-02-28 08:27:03 51°14.164 2°53.48 251.7 14.1 246 7.6
2005-02-28 08:28:03 51°14.04 2°53.156 241.7 14.4 238 7.9
2005-02-28 08:29:03 51°13.918 2°52.821 242.8 14.8 238 8.1
2005-02-28 08:30:01 51°13.801 2°52.488 242.3 14.8 238 8.3
2005-02-28 08:31:02 51°13.681 2°52.144 245.1 14.9 241 8.4
2005-02-28 08:32:03 51°13.555 2°51.797 245.3 14.8 240 8.5
2005-02-28 08:33:03 51°13.434 2°51.453 243.1 15 241 8.9
2005-02-28 08:34:03 51°13.313 2°51.105 243.4 15.2 241 8.8
2005-02-28 08:35:01 51°13.195 2°50.762 244.5 15.1 241 8.9
2005-02-28 08:36:01 51°13.074 2°50.412 244.5 14.9 241 9
2005-02-28 08:37:03 51°12.953 2°50.054 245.4 15 241 9.1
2005-02-28 08:38:02 51°12.834 2°49.715 243.4 14.9 239 9.3
2005-02-28 08:39:03 51°12.71 2°49.367 244.2 14.8 240 9.7
2005-02-28 08:40:03 51°12.586 2°49.026 242.4 14.8 238 9.7
2005-02-28 08:41:01 51°12.461 2°48.696 243.4 15 238 9.6
2005-02-28 08:42:03 51°12.329 2°48.346 242.4 15 239 9.9
2005-02-28 08:43:03 51°12.218 2°47.995 252.5 14.9 247 10.2
2005-02-28 08:44:01 51°12.131 2°47.636 252.5 15 248 10.4
2005-02-28 08:45:02 51°12.038 2°47.26 253.4 14.9 249 10.5
2005-02-28 08:46:01 51°11.949 2°46.896 252.5 14.9 249 10.5
2005-02-28 08:47:02 51°11.856 2°46.523 252.8 15 248 10.6
2005-02-28 08:48:03 51°11.763 2°46.143 252.2 15.1 247 10.5
2005-02-28 08:49:03 51°11.67 2°45.771 251.9 15.3 248 10.6
2005-02-28 08:50:02 51°11.578 2°45.405 251.8 15.1 248 10.5
2005-02-28 08:51:02 51°11.481 2°45.037 251.4 15 248 10.4
2005-02-28 08:52:03 51°11.387 2°44.663 252 15 248 10.5
2005-02-28 08:53:03 51°11.293 2°44.299 251.5 14.8 248 10.4
2005-02-28 08:54:02 51°11.203 2°43.939 250.5 14.9 247 10.3
2005-02-28 08:55:03 51°11.107 2°43.565 250.1 15 247 10.2
2005-02-28 08:56:02 51°11.015 2°43.198 251.7 15.2 248 10.2
2005-02-28 08:57:01 51°10.924 2°42.832 252.5 15.3 249 10.2
2005-02-28 08:58:03 51°10.83 2°42.457 251.7 14.7 249 10.1
2005-02-28 08:59:02 51°10.754 2°42.093 262.4 14.9 255 10
2005-02-28 09:00:01 51°10.716 2°41.705 264.5 15.1 260 10.2
2005-02-28 09:01:01 51°10.669 2°41.313 261.7 15 258 10.4
2005-02-28 09:02:03 51°10.614 2°40.912 262 15.2 256 10.4
2005-02-28 09:03:02 51°10.56 2°40.531 260.8 13.8 258 10.8
2005-02-28 09:04:03 51°10.502 2°40.301 239.5 7 241 11.5
2005-02-28 09:05:03 51°10.449 2°40.179 228.5 5.1 236 11.5
2005-02-28 09:06:02 51°10.408 2°39.998 259.7 8.6 255 11.5
2005-02-28 09:07:03 51°10.357 2°39.661 260.3 14.1 257 11.9
2005-02-28 09:08:03 51°10.303 2°39.294 260.2 14.3 258 12.8
2005-02-28 09:09:03 51°10.247 2°38.923 260.9 14.4 257 13.2
2005-02-28 09:10:01 51°10.196 2°38.568 260.9 14.3 258 13.9
2005-02-28 09:11:01 51°10.141 2°38.193 261.3 14.5 257 14.2
2005-02-28 09:12:03 51°10.09 2°37.808 261.5 14.5 259 14.9
2005-02-28 09:13:03 51°10.039 2°37.431 260.5 14.6 257 15.5
2005-02-28 09:14:03 51°9.992 2°37.051 265.4 14.6 261 15.6
2005-02-28 09:15:02 51°9.965 2°36.67 272.3 14.6 268 15.7
2005-02-28 09:16:03 51°9.984 2°36.281 279.9 14.6 275 15.9
2005-02-28 09:17:03 51°10.068 2°35.931 309.9 14.1 303 14.8
2005-02-28 09:18:03 51°10.224 2°35.675 334.6 13 327 8.7
2005-02-28 09:19:01 51°10.423 2°35.612 9.4 12.7 -999 8.7
2005-02-28 09:20:03 51°10.608 2°35.752 40 12 33 8.2
2005-02-28 09:21:03 51°10.777 2°35.933 42.6 12.2 36 8.8
2005-02-28 09:22:02 51°10.942 2°36.119 41.5 12.3 35 9
2005-02-28 09:23:03 51°11.108 2°36.314 42.2 12.2 37 9.4
2005-02-28 09:24:03 51°11.27 2°36.505 42.5 12.2 37 9.5
2005-02-28 09:25:03 51°11.433 2°36.691 42 12.1 35 9.7
2005-02-28 09:26:02 51°11.594 2°36.87 41.6 11.9 36 9.8
2005-02-28 09:27:03 51°11.757 2°37.057 42.2 12 35 10.1
2005-02-28 09:28:03 51°11.92 2°37.24 42.6 11.9 36 10
2005-02-28 09:29:03 51°12.083 2°37.418 41.6 12 35 10.1
2005-02-28 09:30:03 51°12.245 2°37.6 42.8 11.9 36 10.2
2005-02-28 09:31:03 51°12.407 2°37.782 43 11.9 35 10.5
2005-02-28 09:32:03 51°12.569 2°37.964 42.9 11.9 36 10.8
2005-02-28 09:33:01 51°12.727 2°38.142 41.9 12 35 11.1
2005-02-28 09:34:03 51°12.896 2°38.324 42.4 12 34 11.6
2005-02-28 09:35:03 51°13.07 2°38.481 36.6 12.1 28 12.1
2005-02-28 09:36:03 51°13.245 2°38.634 37 12 28 12.4
2005-02-28 09:37:03 51°13.419 2°38.788 36.3 11.9 28 11.6
2005-02-28 09:38:01 51°13.595 2°38.912 29 12.2 20 12.2
2005-02-28 09:39:02 51°13.797 2°38.997 21 12.3 11 12.5
2005-02-28 09:40:03 51°14 2°39.052 16.6 12.4 8 11.8
2005-02-28 09:41:03 51°14.205 2°39.049 359.7 12.6 347 9.4
2005-02-28 09:42:03 51°14.399 2°38.889 336.7 13.5 326 15.7
2005-02-28 09:43:03 51°14.551 2°38.639 302.8 13.5 301 15.1
2005-02-28 09:44:03 51°14.512 2°38.271 254.4 14.4 257 15
2005-02-28 09:45:03 51°14.403 2°37.923 245.3 14.8 243 14
2005-02-28 09:46:03 51°14.291 2°37.572 246.2 14.8 243 13.1
2005-02-28 09:47:03 51°14.183 2°37.217 246.9 15 244 12.6
2005-02-28 09:48:03 51°14.062 2°36.871 243.2 15.1 243 14
2005-02-28 09:49:03 51°13.943 2°36.524 241.1 14.7 238 14.7
2005-02-28 09:50:03 51°13.818 2°36.183 240.2 14.9 240 16
2005-02-28 09:51:03 51°13.692 2°35.841 241.2 15.1 240 16.3
2005-02-28 09:52:03 51°13.568 2°35.498 240.9 14.8 240 14.8
2005-02-28 09:53:03 51°13.441 2°35.159 240.6 14.6 238 14.3
2005-02-28 09:54:03 51°13.309 2°34.825 239 15 239 14.5
2005-02-28 09:55:03 51°13.172 2°34.496 238 14.7 236 14.5
2005-02-28 09:56:03 51°13.034 2°34.17 237.3 14.6 235 14.2
2005-02-28 09:57:03 51°12.896 2°33.847 236.5 14.9 235 13.3
2005-02-28 09:58:03 51°12.759 2°33.52 238 14.7 236 13.4
2005-02-28 09:59:03 51°12.622 2°33.197 238.3 14.9 238 12.8
2005-02-28 10:00:03 51°12.483 2°32.877 236.9 14.9 235 13.5
2005-02-28 10:01:03 51°12.356 2°32.548 246.3 14.6 242 14.4
2005-02-28 10:02:03 51°12.265 2°32.19 258.5 14.3 254 15.5
2005-02-28 10:03:03 51°12.204 2°31.814 261.1 14.7 256 18
2005-02-28 10:04:03 51°12.142 2°31.434 261.3 14.7 257 20
2005-02-28 10:05:01 51°12.066 2°31.071 256.2 14.9 249 20.5
2005-02-28 10:06:03 51°11.979 2°30.691 253.5 14.9 250 20.6
2005-02-28 10:07:03 51°11.89 2°30.319 253.3 15 248 21
2005-02-28 10:08:03 51°11.802 2°29.946 252.5 15.2 250 20.9
2005-02-28 10:09:03 51°11.714 2°29.569 254 15.3 252 21.6
2005-02-28 10:10:01 51°11.628 2°29.199 252.9 15.4 250 22.1
2005-02-28 10:11:03 51°11.541 2°28.808 253.3 15.3 250 22.3
2005-02-28 10:12:03 51°11.457 2°28.422 253.5 -999 -999 20.6
2005-02-28 10:13:03 51°11.375 2°28.034 253.6 15.5 251 21.9
2005-02-28 10:14:02 51°11.293 2°27.652 252.7 15.3 251 21.2
2005-02-28 10:15:03 51°11.213 2°27.261 254.8 15.4 252 20.7
2005-02-28 10:16:03 51°11.199 2°26.861 270.5 15.1 266 19.5
2005-02-28 10:17:03 51°11.165 2°26.465 265.2 14.9 261 17.2
2005-02-28 10:18:03 51°11.127 2°26.073 265.8 14.9 262 14.4
2005-02-28 10:19:03 51°11.1 2°25.689 273.6 14.3 270 11.4
2005-02-28 10:20:03 51°11.15 2°25.322 297.5 14.2 292 16.2
2005-02-28 10:21:03 51°11.322 2°25.153 3.1 12.4 356 21.8
2005-02-28 10:22:01 51°11.503 2°25.273 32.9 12.2 29 21.8
2005-02-28 10:23:01 51°11.667 2°25.455 41.7 11.9 36 24.1
2005-02-28 10:24:02 51°11.825 2°25.657 45.7 12 42 23.5
2005-02-28 10:25:02 51°11.977 2°25.863 45.1 12 41 23.3
2005-02-28 10:26:03 51°12.133 2°26.066 42 12 36 23.6
2005-02-28 10:27:03 51°12.295 2°26.252 41 12 35 23.8
2005-02-28 10:28:03 51°12.459 2°26.434 41.1 12.1 36 23.6
2005-02-28 10:29:03 51°12.619 2°26.626 43.5 12.1 37 23.8
2005-02-28 10:30:02 51°12.777 2°26.816 43.4 12 37 22.8
2005-02-28 10:31:03 51°12.938 2°27.007 43 11.9 36 22.9
2005-02-28 10:32:03 51°13.096 2°27.194 43.5 11.9 37 23
2005-02-28 10:33:03 51°13.256 2°27.381 43.2 11.9 36 23.2
2005-02-28 10:34:03 51°13.416 2°27.57 43.5 12 37 23.2
2005-02-28 10:35:02 51°13.574 2°27.757 43.3 11.9 37 23.8
2005-02-28 10:36:03 51°13.733 2°27.948 43.5 12 37 24
2005-02-28 10:37:03 51°13.892 2°28.135 42.8 11.9 36 24.5
2005-02-28 10:38:03 51°14.052 2°28.323 43.1 11.8 36 25.3
2005-02-28 10:39:03 51°14.211 2°28.512 43.4 11.8 37 25.1
2005-02-28 10:40:03 51°14.369 2°28.702 43 11.9 37 25.7
2005-02-28 10:41:03 51°14.531 2°28.888 43.6 12 36 26.1
2005-02-28 10:42:03 51°14.685 2°29.094 47.5 12 40 26
2005-02-28 10:43:03 51°14.837 2°29.296 46.5 12 39 26.5
2005-02-28 10:44:03 51°14.992 2°29.496 45.7 11.9 39 26.2
2005-02-28 10:45:03 51°15.139 2°29.71 50 11.9 43 26.8
2005-02-28 10:46:03 51°15.286 2°29.926 49.5 12 43 26.6
2005-02-28 10:47:03 51°15.432 2°30.144 49.6 12.1 43 26.6
2005-02-28 10:48:03 51°15.576 2°30.363 49.9 12.1 44 26.7
2005-02-28 10:49:02 51°15.722 2°30.579 48.9 12 43 26.8
2005-02-28 10:50:03 51°15.869 2°30.798 49.6 12 44 26.8
2005-02-28 10:51:03 51°16.012 2°31.018 49.7 11.9 44 27
2005-02-28 10:52:03 51°16.156 2°31.236 49.4 12 44 27.2
2005-02-28 10:53:03 51°16.299 2°31.456 49.3 12.1 44 27.2
2005-02-28 10:54:03 51°16.445 2°31.675 49.5 11.9 44 26.5
2005-02-28 10:55:02 51°16.589 2°31.892 49.1 12 43 25.7
2005-02-28 10:56:03 51°16.733 2°32.112 50 11.8 45 24.7
2005-02-28 10:57:02 51°16.874 2°32.328 49.3 11.9 44 25.2
2005-02-28 10:58:03 51°17.015 2°32.547 49.5 11.8 44 25.1
2005-02-28 10:59:03 51°17.162 2°32.755 47.4 11.8 42 25.1
2005-02-28 11:00:03 51°17.311 2°32.962 47.1 11.9 41 25.5
2005-02-28 11:01:03 51°17.459 2°33.169 46.8 11.8 41 26.8
2005-02-28 11:02:03 51°17.608 2°33.375 46.6 11.7 41 26.2
2005-02-28 11:03:03 51°17.755 2°33.579 47.3 11.6 41 26.8
2005-02-28 11:04:02 51°17.898 2°33.779 46.8 11.6 40 26.4
2005-02-28 11:05:02 51°18.043 2°33.981 45.3 11.5 40 26.4
2005-02-28 11:06:03 51°18.194 2°34.178 45.2 11.7 40 25.6
2005-02-28 11:07:03 51°18.345 2°34.375 44.7 11.7 39 25.6
2005-02-28 11:08:03 51°18.495 2°34.574 44.5 11.6 39 18.5
2005-02-28 11:09:03 51°18.643 2°34.776 45.3 11.8 42 22.9
2005-02-28 11:10:03 51°18.723 2°35.056 75.4 11.9 75 20.5
2005-02-28 11:11:01 51°18.751 2°35.358 89.8 12.2 93 22.1
2005-02-28 11:12:03 51°18.73 2°35.686 92.9 12.1 96 23.3
2005-02-28 11:13:03 51°18.708 2°36.007 97.1 12.2 99 20.3
2005-02-28 11:14:03 51°18.676 2°36.322 96 12 99 21.4
2005-02-28 11:15:03 51°18.647 2°36.637 96.5 12 98 19.3
2005-02-28 11:16:03 51°18.619 2°36.949 95.9 11.7 97 14.4
2005-02-28 11:17:03 51°18.591 2°37.263 94.7 11.9 98 16.2
2005-02-28 11:18:03 51°18.575 2°37.576 84.9 11.7 85 20.7
2005-02-28 11:19:03 51°18.655 2°37.85 55.8 11.5 57 23.6
2005-02-28 11:20:03 51°18.834 2°37.917 2.6 11.4 1 23
2005-02-28 11:21:03 51°19.035 2°37.858 359.7 12.4 350 22.2
2005-02-28 11:22:03 51°19.239 2°37.809 1.5 12.5 353 21.4
2005-02-28 11:23:03 51°19.445 2°37.787 6.5 12.2 356 20.7
2005-02-28 11:24:03 51°19.65 2°37.77 5.8 12.4 357 20.8
2005-02-28 11:25:02 51°19.854 2°37.754 6.2 12.5 356 19.6
2005-02-28 11:26:03 51°20.063 2°37.733 5.6 12.3 356 22
2005-02-28 11:27:03 51°20.268 2°37.712 6.3 12.3 357 21.2
2005-02-28 11:28:03 51°20.472 2°37.691 6.1 12.3 357 22.2
2005-02-28 11:29:03 51°20.676 2°37.671 6.3 12.2 356 23.1
2005-02-28 11:30:03 51°20.879 2°37.647 5.8 12.3 355 23.6
2005-02-28 11:31:03 51°21.084 2°37.619 6 12.4 355 24.6
2005-02-28 11:32:03 51°21.288 2°37.594 7 12.4 356 24.9
2005-02-28 11:33:03 51°21.492 2°37.568 5.9 12.4 355 25.5
2005-02-28 11:34:03 51°21.7 2°37.537 5.6 12.6 354 28
2005-02-28 11:35:03 51°21.909 2°37.506 6.1 12.7 355 30.5
2005-02-28 11:36:03 51°22.116 2°37.518 15.2 12.5 4 29.2
2005-02-28 11:37:03 51°22.32 2°37.542 15.3 12.4 4 29.7
2005-02-28 11:38:03 51°22.527 2°37.563 14.5 12.5 4 29.4
2005-02-28 11:39:03 51°22.724 2°37.635 32.2 11.9 27 29.4
2005-02-28 11:40:03 51°22.875 2°37.835 51.4 11.7 45 29.1
2005-02-28 11:41:03 51°23.004 2°38.07 53.7 11.7 49 29.2
2005-02-28 11:42:03 51°23.134 2°38.302 52.3 11.7 47 26
2005-02-28 11:43:03 51°23.266 2°38.533 52.2 11.6 48 29.1
2005-02-28 11:44:03 51°23.387 2°38.778 55.6 11.8 53 28
2005-02-28 11:45:03 51°23.505 2°39.029 54 11.8 54 26
2005-02-28 11:46:03 51°23.626 2°39.281 55.1 11.8 51 27.7
2005-02-28 11:47:03 51°23.744 2°39.536 55.8 11.9 53 27
2005-02-28 11:48:03 51°23.865 2°39.789 55.1 12 52 26
2005-02-28 11:49:03 51°23.983 2°40.047 55.6 12.2 53 25.8
2005-02-28 11:50:03 51°24.104 2°40.297 54.4 11.8 54 27.7
2005-02-28 11:51:03 51°24.224 2°40.547 55.6 11.8 52 25.4
2005-02-28 11:52:03 51°24.343 2°40.796 55.1 11.8 51 27.4
2005-02-28 11:53:03 51°24.461 2°41.045 55.5 11.7 52 27.1
2005-02-28 11:54:03 51°24.582 2°41.292 55.7 11.8 53 24.4
2005-02-28 11:55:03 51°24.702 2°41.537 55.1 11.7 52 24.9
2005-02-28 11:56:03 51°24.822 2°41.784 55.1 11.7 52 26.7
2005-02-28 11:57:03 51°24.943 2°42.028 55.1 11.8 52 22.9
2005-02-28 11:58:03 51°25.075 2°42.252 50 11.6 47 25.2
2005-02-28 11:59:03 51°25.209 2°42.476 49.7 11.7 46 24.5
2005-02-28 12:00:03 51°25.344 2°42.7 50.3 11.7 46 24.2
2005-02-28 12:01:03 51°25.48 2°42.924 50.3 11.8 46 25.4
2005-02-28 12:02:03 51°25.617 2°43.148 50.6 11.7 46 24.5
2005-02-28 12:03:03 51°25.752 2°43.372 50.2 -999 -999 25.3
2005-02-28 12:04:03 51°25.885 2°43.596 49.8 11.6 46 26
2005-02-28 12:05:03 51°25.981 2°43.87 64.9 11.7 63 25.6
2005-02-28 12:06:03 51°26.068 2°44.154 65.4 12 64 26
2005-02-28 12:07:03 51°26.172 2°44.421 58.4 11.9 56 27.9
2005-02-28 12:08:03 51°26.279 2°44.685 59.8 11.9 57 27.5
2005-02-28 12:09:03 51°26.386 2°44.954 59.9 11.9 57 27
2005-02-28 12:10:03 51°26.495 2°45.22 60 12 59 27.5
2005-02-28 12:11:03 51°26.603 2°45.488 59.5 11.9 57 28.4
2005-02-28 12:12:03 51°26.714 2°45.752 59 -999 -999 28.5
2005-02-28 12:13:03 51°26.823 2°46.017 58.8 12.1 55 30.6
2005-02-28 12:14:03 51°26.933 2°46.285 59.4 11.9 57 30.6
2005-02-28 12:15:03 51°27.045 2°46.552 59.7 12.2 57 30.4
2005-02-28 12:16:02 51°27.126 2°46.842 72.5 12.2 71 29.6
2005-02-28 12:17:03 51°27.203 2°47.147 69.1 12.1 67 26.7
2005-02-28 12:18:03 51°27.283 2°47.444 68.5 12.2 67 28.2
2005-02-28 12:19:03 51°27.364 2°47.741 68.5 12.1 66 27.3
2005-02-28 12:20:03 51°27.443 2°48.041 69.3 12.2 66 26.8
2005-02-28 12:21:03 51°27.524 2°48.34 69.6 12.1 66 27
2005-02-28 12:22:03 51°27.61 2°48.634 66.3 12.2 63 26.8
2005-02-28 12:23:03 51°27.7 2°48.927 66.3 12.1 64 25.8
2005-02-28 12:24:03 51°27.787 2°49.22 66.9 12.2 65 25.7
2005-02-28 12:25:03 51°27.874 2°49.514 66.4 12.2 65 26.7
2005-02-28 12:26:03 51°27.963 2°49.81 65.9 12.4 65 26.1
2005-02-28 12:27:03 51°28.031 2°50.117 82.2 12.3 87 28.4
2005-02-28 12:28:03 51°27.948 2°50.427 121.6 13.1 123 27.6
2005-02-28 12:29:02 51°27.785 2°50.657 147.1 13.4 150 24.9
2005-02-28 12:30:03 51°27.571 2°50.787 164.3 13.5 167 22.9
2005-02-28 12:31:03 51°27.344 2°50.86 171 14.2 170 20.6
2005-02-28 12:32:03 51°27.131 2°50.72 222 14.3 204 20.3
2005-02-28 12:33:03 51°26.998 2°50.413 242.1 14.1 238 19
2005-02-28 12:34:03 51°26.879 2°50.085 248.6 14.5 241 19.1
2005-02-28 12:35:03 51°26.771 2°49.752 248.9 14.1 244 19.3
2005-02-28 12:36:03 51°26.671 2°49.406 251.2 14.3 245 20.9
2005-02-28 12:37:03 51°26.577 2°49.061 252.5 14.4 249 21.5
2005-02-28 12:38:03 51°26.481 2°48.715 251.9 14.3 247 21.1
2005-02-28 12:39:03 51°26.411 2°48.453 253 7.7 243 21.7
2005-02-28 12:40:03 51°26.357 2°48.31 247 5.4 238 22.2
2005-02-28 12:41:03 51°26.316 2°48.198 247.2 5.3 239 21.4
2005-02-28 12:42:03 51°26.239 2°47.997 249.9 10.7 242 20.8
2005-02-28 12:43:03 51°26.152 2°47.723 250.5 11.4 245 20.5
2005-02-28 12:44:03 51°26.079 2°47.574 227.1 5.6 220 23.5
2005-02-28 12:45:03 51°26.015 2°47.511 209.3 4.1 206 22.5
2005-02-28 12:46:03 51°25.963 2°47.487 191.4 3 190 23.5
2005-02-28 12:47:03 51°25.92 2°47.486 176.2 2.3 176 24.2
2005-02-28 12:48:03 51°25.886 2°47.494 168.6 1.9 171 22
2005-02-28 12:49:03 51°25.858 2°47.506 165.3 1.6 164 23.6
2005-02-28 12:50:03 51°25.833 2°47.518 164 1.5 163 25.1
2005-02-28 12:51:03 51°25.812 2°47.531 160.3 1.4 151 25.7
2005-02-28 12:52:03 51°25.782 2°47.55 165.7 2.6 163 26
2005-02-28 12:53:03 51°25.709 2°47.521 216.7 4.8 192 26.2
2005-02-28 12:54:02 51°25.646 2°47.327 264.9 9.9 257 25.5
2005-02-28 12:55:03 51°25.603 2°47.02 262.3 12.4 259 24.4
2005-02-28 12:56:03 51°25.555 2°46.679 263.7 13 258 24.1
2005-02-28 12:57:03 51°25.492 2°46.439 236.2 6.9 234 24.4
2005-02-28 12:58:03 51°25.445 2°46.301 266.3 4.6 257 24.7
2005-02-28 12:59:03 51°25.416 2°46.082 263.4 11.1 258 23.9
2005-02-28 13:00:03 51°25.375 2°45.749 263.7 13 260 26
2005-02-28 13:01:03 51°25.265 2°45.444 237.3 13.6 231 24.5
2005-02-28 13:02:03 51°25.082 2°45.233 210 13.7 203 26
2005-02-28 13:03:03 51°24.861 2°45.131 193.1 14.2 188 27.3
2005-02-28 13:04:03 51°24.632 2°45.082 191.4 13.7 187 26
2005-02-28 13:05:03 51°24.404 2°45.094 177 13.8 171 26.3
2005-02-28 13:06:03 51°24.189 2°45.224 160.8 14 157 27.7
2005-02-28 13:07:01 51°24.096 2°45.524 97.5 13.6 93 28
2005-02-28 13:08:03 51°24.112 2°45.908 90.4 14.1 86 27.9
2005-02-28 13:09:03 51°24.123 2°46.282 91.9 14 89 31.2
2005-02-28 13:10:03 51°24.126 2°46.657 92.8 14.1 90 30.3
2005-02-28 13:11:03 51°24.13 2°47.032 92.9 13.9 89 29.5
2005-02-28 13:12:03 51°24.129 2°47.407 93.7 14 90 27.5
2005-02-28 13:13:03 51°24.131 2°47.784 92.7 14.2 92 22.2
2005-02-28 13:14:03 51°24.133 2°48.162 92.5 14.2 90 23.3
2005-02-28 13:15:03 51°24.134 2°48.544 93 14.4 91 22.9
2005-02-28 13:16:03 51°24.134 2°48.926 94.2 14.4 92 23.4
2005-02-28 13:17:03 51°24.131 2°49.309 93.1 14.3 91 24.3
2005-02-28 13:18:03 51°24.108 2°49.686 103.6 14.3 101 23.9
2005-02-28 13:19:03 51°24.062 2°50.062 104 14.3 101 23.1
2005-02-28 13:20:03 51°23.998 2°50.426 118.6 14.1 114 23.5
2005-02-28 13:21:03 51°23.872 2°50.749 124.3 14.1 125 22
2005-02-28 13:22:03 51°23.668 2°50.817 202.2 13 197 19.8
2005-02-28 13:23:03 51°23.48 2°50.635 220.6 13.3 214 18.8
2005-02-28 13:24:03 51°23.315 2°50.402 226.9 13.3 220 18.5
2005-02-28 13:25:03 51°23.154 2°50.164 228.2 13.1 224 17.9
2005-02-28 13:26:03 51°22.994 2°49.927 228 13.3 223 18.9
2005-02-28 13:27:03 51°22.825 2°49.711 216.5 13.3 210 18.3
2005-02-28 13:28:03 51°22.622 2°49.576 209.7 13.3 203 21.5
2005-02-28 13:29:03 51°22.418 2°49.443 208.2 12.9 201 24.7
2005-02-28 13:30:03 51°22.216 2°49.311 208.8 12.8 201 25.1
2005-02-28 13:31:03 51°22.016 2°49.183 208.3 13 202 25
2005-02-28 13:32:03 51°21.815 2°49.056 209 12.8 203 25.1
2005-02-28 13:33:03 51°21.617 2°48.928 209.9 12.9 202 24.7
2005-02-28 13:34:03 51°21.418 2°48.806 209.1 12.5 201 23.6
2005-02-28 13:35:03 51°21.219 2°48.684 208.9 13 199 22.8
2005-02-28 13:36:03 51°21.021 2°48.562 209.4 13.1 201 22.6
2005-02-28 13:37:03 51°20.824 2°48.441 210 12.6 203 22.8
2005-02-28 13:38:03 51°20.629 2°48.315 211.7 12.5 203 23
2005-02-28 13:39:03 51°20.44 2°48.162 217.7 12.7 211 23.6
2005-02-28 13:40:03 51°20.257 2°47.998 217.1 12.7 209 23.9
2005-02-28 13:41:03 51°20.076 2°47.833 219.1 12.3 211 24.1
2005-02-28 13:42:03 51°19.903 2°47.656 218.9 12.4 213 24.1
2005-02-28 13:43:03 51°19.731 2°47.48 219.1 12.3 211 24.1
2005-02-28 13:44:03 51°19.562 2°47.306 222.3 11.9 216 23.9
2005-02-28 13:45:03 51°19.399 2°47.12 222.8 12.1 217 23.7
2005-02-28 13:46:03 51°19.236 2°46.933 221.6 11.9 216 23.5
2005-02-28 13:47:03 51°19.075 2°46.742 223.5 12 218 23.4
2005-02-28 13:48:03 51°18.912 2°46.558 222.9 11.9 214 23.4
2005-02-28 13:49:03 51°18.75 2°46.374 222.6 11.6 217 23.1
2005-02-28 13:50:03 51°18.591 2°46.189 222.8 12.1 216 22.8
2005-02-28 13:51:03 51°18.432 2°46.003 223.2 11.7 219 22
2005-02-28 13:52:03 51°18.272 2°45.82 223.5 11.8 219 21.5
2005-02-28 13:53:03 51°18.114 2°45.637 222.4 11.9 218 21.1
2005-02-28 13:54:03 51°17.956 2°45.451 222.3 12.1 215 20.5
2005-02-28 13:55:03 51°17.797 2°45.263 222 11.8 216 19.9
2005-02-28 13:56:03 51°17.639 2°45.072 221.2 12.1 217 19.7
2005-02-28 13:57:03 51°17.479 2°44.883 222 11.9 216 19.2
2005-02-28 13:58:03 51°17.32 2°44.69 220.9 12.2 216 19
2005-02-28 13:59:04 51°17.159 2°44.495 223.6 11.7 213 18.8
2005-02-28 14:00:03 51°17.001 2°44.302 222.3 12.2 218 18.4
2005-02-28 14:01:03 51°16.836 2°44.118 218 12.3 210 17.8
2005-02-28 14:02:03 51°16.666 2°43.939 217.6 12.3 215 17.3
2005-02-28 14:03:03 51°16.49 2°43.774 211.9 12.1 202 17.1
2005-02-28 14:04:03 51°16.3 2°43.643 209.5 12.1 203 16.8
2005-02-28 14:05:03 51°16.101 2°43.559 194 12.7 184 15.7
2005-02-28 14:06:03 51°15.89 2°43.601 172.3 13.5 167 14.8
2005-02-28 14:07:04 51°15.699 2°43.794 146.6 13.8 137 14.3
2005-02-28 14:08:03 51°15.544 2°44.069 134.2 14.5 121 15.5
2005-02-28 14:09:03 51°15.434 2°44.416 117.2 15 108 16.6
2005-02-28 14:10:03 51°15.382 2°44.799 102.8 15.2 96 20.1
2005-02-28 14:11:03 51°15.361 2°45.203 102 15.4 96 20.7
2005-02-28 14:12:03 51°15.336 2°45.607 103.2 15.3 97 19.2
2005-02-28 14:13:03 51°15.309 2°46.009 105.3 15.4 98 17.9
2005-02-28 14:14:02 51°15.303 2°46.413 91.1 15.6 85 16.6
2005-02-28 14:15:03 51°15.323 2°46.827 91.4 15.5 87 14.9
2005-02-28 14:16:03 51°15.338 2°47.239 91.9 15.6 87 14
2005-02-28 14:17:02 51°15.352 2°47.644 92.1 15.3 86 13
2005-02-28 14:18:03 51°15.362 2°48.05 93.1 15.2 88 12.7
2005-02-28 14:19:03 51°15.373 2°48.452 92.5 15.4 86 13.6
2005-02-28 14:20:03 51°15.388 2°48.861 93.6 15.6 87 15.4
2005-02-28 14:21:03 51°15.399 2°49.275 93.2 15.6 89 15.5
2005-02-28 14:22:03 51°15.413 2°49.69 93.5 15.6 87 15.5
2005-02-28 14:23:03 51°15.425 2°50.103 93.3 15.4 88 15.5
2005-02-28 14:24:03 51°15.44 2°50.514 92.8 15.5 84 15.3
2005-02-28 14:25:03 51°15.438 2°50.921 102.5 15.4 94 15.3
2005-02-28 14:26:03 51°15.413 2°51.322 103 15.2 96 15.2
2005-02-28 14:27:03 51°15.393 2°51.724 101.5 15.3 94 15
2005-02-28 14:28:03 51°15.313 2°52.087 129.2 14.4 121 14.7
2005-02-28 14:29:03 51°15.215 2°52.369 133.6 8.9 121 14.3
2005-02-28 14:30:03 51°15.115 2°52.635 129.9 13 124 13.7
2005-02-28 14:31:03 51°15 2°52.944 128.5 13.5 121 13.7
2005-02-28 14:32:03 51°14.882 2°53.254 130.7 13.6 121 13
2005-02-28 14:33:03 51°14.764 2°53.557 128.4 13.4 120 12.9
2005-02-28 14:34:03 51°14.666 2°53.882 123.2 14.2 110 12.7
2005-02-28 14:35:03 51°14.577 2°54.228 123.1 14 112 12.8
2005-02-28 14:36:03 51°14.487 2°54.558 124 13.3 116 12.8
2005-02-28 14:37:03 51°14.4 2°54.881 119.9 13.5 110 12.8
2005-02-28 14:38:03 51°14.311 2°55.156 129.3 10.4 125 12.6
2005-02-28 14:39:03 51°14.202 2°55.34 143.7 9.2 143 12.4
2005-02-28 14:40:03 51°14.069 2°55.454 156 9.1 154 12.4
2005-02-28 14:41:03 51°13.932 2°55.558 156.3 8.9 154 12.7
2005-02-28 14:42:03 51°13.805 2°55.659 153.3 8.4 150 13.2
2005-02-28 14:43:04 51°13.712 2°55.79 132.7 7 131 -999
2005-02-28 14:44:03 51°13.656 2°55.918 125.2 5.6 122 12.8
2005-02-28 14:45:03 51°13.616 2°56.035 118.2 4.4 117 13.1
2005-02-28 14:46:01 51°13.595 2°56.102 120.1 0.4 126 10.2
2005-02-28 14:47:04 51°13.595 2°56.103 123.7 0.3 60 -999